createdAt,value
2023-03-31T00:02:13.869Z,21.50
2023-03-31T00:04:52.535Z,21.50
2023-03-31T00:07:23.789Z,21.50
2023-03-31T00:10:00.886Z,21.40
2023-03-31T00:12:34.476Z,21.40
2023-03-31T00:15:01.320Z,21.50
2023-03-31T00:17:28.029Z,21.50
2023-03-31T00:20:00.474Z,21.40
2023-03-31T00:22:27.957Z,21.40
2023-03-31T00:24:54.700Z,21.40
2023-03-31T00:27:21.473Z,21.40
2023-03-31T00:29:50.736Z,21.40
2023-03-31T00:32:17.538Z,21.40
2023-03-31T00:34:46.266Z,21.40
2023-03-31T00:37:14.836Z,21.50
2023-03-31T00:39:42.246Z,21.50
2023-03-31T00:42:12.969Z,21.40
2023-03-31T00:45:14.601Z,21.40
2023-03-31T00:47:43.990Z,21.40
2023-03-31T00:50:18.806Z,21.40
2023-03-31T00:52:47.537Z,21.40
2023-03-31T00:55:18.541Z,21.50
2023-03-31T00:57:48.084Z,21.40
2023-03-31T01:00:16.389Z,21.40
2023-03-31T01:02:52.461Z,21.40
2023-03-31T01:05:23.164Z,21.40
2023-03-31T01:07:52.576Z,21.40
2023-03-31T01:10:19.535Z,21.40
2023-03-31T01:12:50.012Z,21.40
2023-03-31T01:15:16.815Z,21.40
2023-03-31T01:17:45.072Z,21.40
2023-03-31T01:20:39.503Z,21.40
2023-03-31T01:23:40.174Z,21.40
2023-03-31T01:26:33.706Z,21.40
2023-03-31T01:29:40.342Z,21.40
2023-03-31T01:32:41.777Z,21.40
2023-03-31T01:35:33.350Z,21.40
2023-03-31T01:38:32.730Z,21.40
2023-03-31T01:41:14.481Z,21.40
2023-03-31T01:44:25.626Z,21.40
2023-03-31T01:47:02.355Z,21.40
2023-03-31T01:49:50.807Z,21.40
2023-03-31T01:52:39.569Z,21.40
2023-03-31T01:55:56.866Z,21.40
2023-03-31T01:59:05.521Z,21.40
2023-03-31T02:01:41.305Z,21.40
2023-03-31T02:04:19.299Z,21.40
2023-03-31T02:06:53.015Z,21.40
2023-03-31T02:09:36.798Z,21.40
2023-03-31T02:12:08.121Z,21.40
2023-03-31T02:14:38.237Z,21.40
2023-03-31T02:17:08.345Z,21.40
2023-03-31T02:19:40.180Z,21.40
2023-03-31T02:22:08.971Z,21.40
2023-03-31T02:24:38.449Z,21.40
2023-03-31T02:27:34.467Z,21.40
2023-03-31T02:30:01.851Z,21.40
2023-03-31T02:32:39.459Z,21.40
2023-03-31T02:35:10.398Z,21.40
2023-03-31T02:37:39.276Z,21.40
2023-03-31T02:40:10.585Z,21.40
2023-03-31T02:42:39.107Z,21.40
2023-03-31T02:45:27.243Z,21.40
2023-03-31T02:47:55.087Z,21.40
2023-03-31T02:50:27.318Z,21.40
2023-03-31T02:53:32.156Z,21.40
2023-03-31T02:56:05.116Z,21.40
2023-03-31T02:58:46.055Z,21.40
2023-03-31T03:01:45.340Z,21.40
2023-03-31T03:04:17.044Z,21.40
2023-03-31T03:07:10.062Z,21.40
2023-03-31T03:09:54.962Z,21.40
2023-03-31T03:12:33.518Z,21.40
2023-03-31T03:15:08.530Z,21.40
2023-03-31T03:17:43.543Z,21.40
2023-03-31T03:20:11.590Z,21.40
2023-03-31T03:22:39.511Z,21.40
2023-03-31T03:25:09.568Z,21.40
2023-03-31T03:27:37.124Z,21.40
2023-03-31T03:30:10.109Z,21.40
2023-03-31T03:32:37.356Z,21.40
2023-03-31T03:35:05.394Z,21.40
2023-03-31T03:37:32.541Z,21.40
2023-03-31T03:39:59.284Z,21.40
2023-03-31T03:42:26.008Z,21.40
2023-03-31T03:44:52.748Z,21.40
2023-03-31T03:47:19.545Z,21.40
2023-03-31T03:49:48.584Z,21.40
2023-03-31T03:52:16.336Z,21.40
2023-03-31T03:54:43.095Z,21.40
2023-03-31T03:57:09.904Z,21.40
2023-03-31T03:59:36.647Z,21.40
2023-03-31T04:02:03.532Z,21.40
2023-03-31T04:04:30.368Z,21.40
2023-03-31T04:06:57.135Z,21.40
2023-03-31T04:09:23.880Z,21.40
2023-03-31T04:11:50.636Z,21.40
2023-03-31T04:14:17.440Z,21.40
2023-03-31T04:16:46.847Z,21.40
2023-03-31T04:19:17.647Z,21.40
2023-03-31T04:21:50.804Z,21.40
2023-03-31T04:24:21.912Z,21.40
2023-03-31T04:26:51.130Z,21.40
2023-03-31T04:29:19.939Z,21.40
2023-03-31T04:31:46.955Z,21.40
2023-03-31T04:34:15.549Z,21.40
2023-03-31T04:36:47.616Z,21.40
2023-03-31T04:39:16.937Z,21.40
2023-03-31T04:41:44.671Z,21.40
2023-03-31T04:44:11.483Z,21.40
2023-03-31T04:46:38.288Z,21.40
2023-03-31T04:49:05.873Z,21.40
2023-03-31T04:51:32.940Z,21.40
2023-03-31T04:53:59.668Z,21.40
2023-03-31T04:56:26.737Z,21.40
2023-03-31T04:58:53.720Z,21.40
2023-03-31T05:01:20.965Z,21.40
2023-03-31T05:03:48.391Z,21.40
2023-03-31T05:06:18.361Z,21.40
2023-03-31T05:08:45.516Z,21.40
2023-03-31T05:11:12.395Z,21.40
2023-03-31T05:13:39.104Z,21.40
2023-03-31T05:16:12.446Z,21.40
2023-03-31T05:18:39.284Z,21.40
2023-03-31T05:21:24.446Z,21.40
2023-03-31T05:23:51.414Z,21.40
2023-03-31T05:26:18.195Z,21.40
2023-03-31T05:28:45.037Z,21.40
2023-03-31T05:31:13.254Z,21.40
2023-03-31T05:33:42.005Z,21.40
2023-03-31T05:36:15.395Z,21.40
2023-03-31T05:38:43.079Z,21.40
2023-03-31T05:41:11.016Z,21.40
2023-03-31T05:43:39.500Z,21.40
2023-03-31T05:46:07.120Z,21.40
2023-03-31T05:48:34.296Z,21.30
2023-03-31T05:51:01.786Z,21.40
2023-03-31T05:53:28.674Z,21.40
2023-03-31T05:55:59.907Z,21.30
2023-03-31T05:58:27.550Z,21.30
2023-03-31T06:01:10.301Z,21.30
2023-03-31T06:03:41.433Z,21.40
2023-03-31T06:06:10.058Z,21.40
2023-03-31T06:08:38.006Z,21.40
2023-03-31T06:11:09.676Z,21.40
2023-03-31T06:13:37.172Z,21.40
2023-03-31T06:16:04.545Z,21.40
2023-03-31T06:18:34.094Z,21.30
2023-03-31T06:21:01.206Z,21.30
2023-03-31T06:23:28.213Z,21.30
2023-03-31T06:25:59.227Z,21.30
2023-03-31T06:28:26.055Z,21.30
2023-03-31T06:31:00.484Z,21.30
2023-03-31T06:33:27.373Z,21.30
2023-03-31T06:35:57.392Z,21.30
2023-03-31T06:38:25.569Z,21.40
2023-03-31T06:40:52.283Z,21.40
2023-03-31T06:43:19.222Z,21.30
2023-03-31T06:45:46.081Z,21.30
2023-03-31T06:48:13.355Z,21.40
2023-03-31T06:50:41.602Z,21.30
2023-03-31T06:53:09.404Z,21.40
2023-03-31T06:55:37.183Z,21.40
2023-03-31T06:58:05.394Z,21.40
2023-03-31T07:00:33.814Z,21.30
2023-03-31T07:03:01.417Z,21.40
2023-03-31T07:05:28.713Z,21.30
2023-03-31T07:07:57.133Z,21.30
2023-03-31T07:10:26.254Z,21.40
2023-03-31T07:12:53.185Z,21.30
2023-03-31T07:15:20.290Z,21.30
2023-03-31T07:20:18.986Z,21.30
2023-03-31T07:22:47.688Z,21.40
2023-03-31T07:25:17.016Z,21.40
2023-03-31T07:27:44.502Z,21.40
2023-03-31T07:30:20.774Z,21.40
2023-03-31T07:32:49.626Z,21.40
2023-03-31T07:35:17.446Z,21.40
2023-03-31T07:37:46.862Z,21.40
2023-03-31T07:40:20.808Z,21.40
2023-03-31T07:42:49.389Z,21.40
2023-03-31T07:45:17.125Z,21.40
2023-03-31T07:47:46.435Z,21.40
2023-03-31T07:50:14.728Z,21.40
2023-03-31T07:52:43.081Z,21.40
2023-03-31T07:55:10.988Z,21.40
2023-03-31T07:57:38.414Z,21.40
2023-03-31T08:00:08.563Z,21.40
2023-03-31T08:02:36.430Z,21.40
2023-03-31T08:05:03.629Z,21.40
2023-03-31T08:07:33.099Z,21.40
2023-03-31T08:09:59.812Z,21.40
2023-03-31T08:12:26.565Z,21.40
2023-03-31T08:14:53.295Z,21.40
2023-03-31T08:17:20.036Z,21.40
2023-03-31T08:19:46.774Z,21.40
2023-03-31T08:22:13.601Z,21.40
2023-03-31T08:24:40.378Z,21.40
2023-03-31T08:27:12.070Z,21.40
2023-03-31T08:29:39.236Z,21.40
2023-03-31T08:32:07.250Z,21.40
2023-03-31T08:34:34.270Z,21.40
2023-03-31T08:37:01.006Z,21.40
2023-03-31T08:39:27.756Z,21.40
2023-03-31T08:42:13.285Z,21.40
2023-03-31T08:44:47.953Z,21.40
2023-03-31T08:47:20.211Z,21.40
2023-03-31T08:50:00.906Z,21.40
2023-03-31T08:52:38.221Z,21.40
2023-03-31T08:55:19.935Z,21.40
2023-03-31T08:57:59.074Z,21.40
2023-03-31T09:00:26.594Z,21.40
2023-03-31T09:03:09.598Z,21.40
2023-03-31T09:05:53.164Z,21.40
2023-03-31T09:08:38.938Z,21.40
2023-03-31T09:11:22.760Z,21.40
2023-03-31T09:14:18.653Z,21.40
2023-03-31T09:17:15.758Z,21.40
2023-03-31T09:19:50.897Z,21.40
2023-03-31T09:22:23.111Z,21.40
2023-03-31T09:24:55.416Z,21.40
2023-03-31T09:27:25.486Z,21.40
2023-03-31T09:29:57.632Z,21.40
2023-03-31T09:32:30.509Z,21.40
2023-03-31T09:35:12.688Z,21.40
2023-03-31T09:37:39.433Z,21.40
2023-03-31T09:40:08.014Z,21.40
2023-03-31T09:42:39.122Z,21.40
2023-03-31T09:45:06.469Z,21.40
2023-03-31T09:47:42.575Z,21.40
2023-03-31T09:50:10.568Z,21.40
2023-03-31T09:52:48.634Z,21.40
2023-03-31T09:55:36.151Z,21.40
2023-03-31T09:58:08.268Z,21.40
2023-03-31T10:00:36.344Z,21.40
2023-03-31T10:03:08.500Z,21.40
2023-03-31T10:05:39.930Z,21.40
2023-03-31T10:08:32.033Z,21.40
2023-03-31T10:11:09.975Z,21.40
2023-03-31T10:13:45.946Z,21.40
2023-03-31T10:16:27.892Z,21.40
2023-03-31T10:18:55.168Z,21.40
2023-03-31T10:21:27.850Z,21.40
2023-03-31T10:23:55.311Z,21.40
2023-03-31T10:26:27.156Z,21.40
2023-03-31T10:28:55.456Z,21.40
2023-03-31T10:31:33.965Z,21.40
2023-03-31T10:34:07.474Z,21.40
2023-03-31T10:36:35.181Z,21.40
2023-03-31T10:39:07.030Z,21.40
2023-03-31T10:41:34.077Z,21.40
2023-03-31T10:44:03.919Z,21.40
2023-03-31T10:47:06.978Z,21.50
2023-03-31T10:49:39.815Z,21.40
2023-03-31T10:52:18.288Z,21.40
2023-03-31T10:54:50.350Z,21.40
2023-03-31T10:57:18.960Z,21.40
2023-03-31T11:00:10.408Z,21.40
2023-03-31T11:02:58.307Z,21.40
2023-03-31T11:05:46.391Z,21.40
2023-03-31T11:08:42.966Z,21.40
2023-03-31T11:11:20.945Z,21.40
2023-03-31T11:14:01.127Z,21.40
2023-03-31T11:16:36.635Z,21.40
2023-03-31T11:19:29.959Z,21.40
2023-03-31T11:22:10.000Z,21.40
2023-03-31T11:24:45.890Z,21.40
2023-03-31T11:27:12.568Z,21.40
2023-03-31T11:29:53.514Z,21.40
2023-03-31T11:32:35.871Z,21.40
2023-03-31T11:35:29.170Z,21.40
2023-03-31T11:38:28.676Z,21.40
2023-03-31T11:41:13.025Z,21.40
2023-03-31T11:43:44.659Z,21.40
2023-03-31T11:46:14.598Z,21.50
2023-03-31T11:48:50.364Z,21.50
2023-03-31T11:51:22.925Z,21.50
2023-03-31T11:53:52.212Z,21.50
2023-03-31T11:56:20.900Z,21.50
2023-03-31T11:58:53.664Z,21.50
2023-03-31T12:01:38.192Z,21.50
2023-03-31T12:04:38.983Z,21.50
2023-03-31T12:07:29.457Z,21.50
2023-03-31T12:10:18.127Z,21.50
2023-03-31T12:13:03.229Z,21.50
2023-03-31T12:15:39.806Z,21.50
2023-03-31T12:18:18.156Z,21.50
2023-03-31T12:21:04.197Z,21.50
2023-03-31T12:23:36.976Z,21.50
2023-03-31T12:26:08.127Z,21.50
2023-03-31T12:28:38.676Z,21.50
2023-03-31T12:31:07.346Z,21.50
2023-03-31T12:33:38.058Z,21.50
2023-03-31T12:36:45.685Z,21.50
2023-03-31T12:39:42.889Z,21.50
2023-03-31T12:42:40.850Z,21.50
2023-03-31T12:45:20.344Z,21.50
2023-03-31T12:47:47.515Z,21.50
2023-03-31T12:50:29.783Z,21.50
2023-03-31T12:53:17.600Z,21.50
2023-03-31T12:55:55.732Z,21.50
2023-03-31T12:58:32.320Z,21.50
2023-03-31T13:01:08.112Z,21.50
2023-03-31T13:03:43.205Z,21.50
2023-03-31T13:06:32.761Z,21.50
2023-03-31T13:09:08.915Z,21.50
2023-03-31T13:11:38.983Z,21.50
2023-03-31T13:14:22.686Z,21.50
2023-03-31T13:16:52.173Z,21.60
2023-03-31T13:19:35.103Z,21.50
2023-03-31T13:22:04.411Z,21.60
2023-03-31T13:24:32.509Z,21.50
2023-03-31T13:27:19.236Z,21.60
2023-03-31T13:29:46.574Z,21.60
2023-03-31T13:32:22.970Z,21.50
2023-03-31T13:35:02.597Z,21.60
2023-03-31T13:38:07.137Z,21.50
2023-03-31T13:41:11.572Z,21.60
2023-03-31T13:44:02.131Z,21.60
2023-03-31T13:46:51.336Z,21.60
2023-03-31T13:49:30.402Z,21.60
2023-03-31T13:52:04.045Z,21.50
2023-03-31T13:54:45.904Z,21.60
2023-03-31T13:57:50.595Z,21.50
2023-03-31T14:00:36.352Z,21.60
2023-03-31T14:03:21.811Z,21.50
2023-03-31T14:06:02.128Z,21.60
2023-03-31T14:08:40.690Z,21.60
2023-03-31T14:11:20.965Z,21.60
2023-03-31T14:14:07.592Z,21.60
2023-03-31T14:16:39.286Z,21.60
2023-03-31T14:19:23.444Z,21.60
2023-03-31T14:21:57.887Z,21.60
2023-03-31T14:25:00.578Z,21.50
2023-03-31T14:27:40.004Z,21.60
2023-03-31T14:30:14.588Z,21.60
2023-03-31T14:33:23.327Z,21.60
2023-03-31T14:36:16.525Z,21.60
2023-03-31T14:38:44.774Z,21.60
2023-03-31T14:41:29.800Z,21.60
2023-03-31T14:44:01.949Z,21.60
2023-03-31T14:46:33.056Z,21.60
2023-03-31T14:49:27.510Z,21.60
2023-03-31T14:52:01.078Z,21.60
2023-03-31T14:54:27.813Z,21.60
2023-03-31T14:56:56.681Z,21.60
2023-03-31T14:59:29.044Z,21.60
2023-03-31T15:01:59.664Z,21.60
2023-03-31T15:04:39.588Z,21.60
2023-03-31T15:07:09.848Z,21.60
2023-03-31T15:09:37.247Z,21.50
2023-03-31T15:12:08.104Z,21.50
2023-03-31T15:14:40.818Z,21.50
2023-03-31T15:17:29.305Z,21.50
2023-03-31T15:19:58.753Z,21.50
2023-03-31T15:22:28.544Z,21.50
2023-03-31T15:24:55.794Z,21.50
2023-03-31T15:27:37.110Z,21.50
2023-03-31T15:30:13.614Z,21.50
2023-03-31T15:32:40.892Z,21.50
2023-03-31T15:38:06.305Z,21.50
2023-03-31T15:40:40.158Z,21.50
2023-03-31T15:43:26.813Z,21.50
2023-03-31T15:45:55.586Z,21.50
2023-03-31T15:48:34.259Z,21.50
2023-03-31T15:51:22.656Z,21.50
2023-03-31T15:53:54.112Z,21.50
2023-03-31T15:56:43.710Z,21.50
2023-03-31T16:02:19.146Z,21.50
2023-03-31T16:04:50.573Z,21.50
2023-03-31T16:07:24.203Z,21.50
2023-03-31T16:10:23.280Z,21.50
2023-03-31T16:12:58.144Z,21.50
2023-03-31T16:15:40.424Z,21.50
2023-03-31T16:18:13.253Z,21.50
2023-03-31T16:20:46.128Z,21.50
2023-03-31T16:23:17.809Z,21.50
2023-03-31T16:25:45.814Z,21.50
2023-03-31T16:28:22.548Z,21.50
2023-03-31T16:30:49.752Z,21.50
2023-03-31T16:33:23.354Z,21.50
2023-03-31T16:35:53.643Z,21.50
2023-03-31T16:38:22.231Z,21.50
2023-03-31T16:40:51.768Z,21.50
2023-03-31T16:43:26.034Z,21.50
2023-03-31T16:45:57.650Z,21.50
2023-03-31T16:48:26.697Z,21.50
2023-03-31T16:50:56.089Z,21.50
2023-03-31T16:53:26.521Z,21.50
2023-03-31T16:55:53.892Z,21.50
2023-03-31T16:58:21.248Z,21.50
2023-03-31T17:00:48.179Z,21.50
2023-03-31T17:03:16.587Z,21.50
2023-03-31T17:05:46.521Z,21.50
2023-03-31T17:08:14.535Z,21.50
2023-03-31T17:10:41.867Z,21.50
2023-03-31T17:13:09.664Z,21.50
2023-03-31T17:15:37.909Z,21.50
2023-03-31T17:18:05.281Z,21.50
2023-03-31T17:20:32.857Z,21.50
2023-03-31T17:23:00.134Z,21.50
2023-03-31T17:25:26.935Z,21.50
2023-03-31T17:27:55.809Z,21.50
2023-03-31T17:30:23.591Z,21.50
2023-03-31T17:32:51.572Z,21.50
2023-03-31T17:35:22.520Z,21.50
2023-03-31T17:37:51.582Z,21.50
2023-03-31T17:40:18.426Z,21.50
2023-03-31T17:42:45.237Z,21.60
2023-03-31T17:45:12.789Z,21.50
2023-03-31T17:47:39.964Z,21.50
2023-03-31T17:50:08.711Z,21.50
2023-03-31T17:52:35.956Z,21.60
2023-03-31T17:55:04.402Z,21.60
2023-03-31T17:57:31.913Z,21.60
2023-03-31T17:59:58.911Z,21.60
2023-03-31T18:02:25.806Z,21.60
2023-03-31T18:04:53.364Z,21.60
2023-03-31T18:07:23.104Z,21.60
2023-03-31T18:09:49.929Z,21.60
2023-03-31T18:12:17.670Z,21.60
2023-03-31T18:14:44.629Z,21.60
2023-03-31T18:17:14.844Z,21.60
2023-03-31T18:19:43.475Z,21.60
2023-03-31T18:22:11.259Z,21.60
2023-03-31T18:24:39.106Z,21.60
2023-03-31T18:27:06.425Z,21.60
2023-03-31T18:29:33.333Z,21.60
2023-03-31T18:32:00.325Z,21.60
2023-03-31T18:34:27.280Z,21.60
2023-03-31T18:36:54.652Z,21.60
2023-03-31T18:39:22.112Z,21.60
2023-03-31T18:41:49.275Z,21.60
2023-03-31T18:44:17.426Z,21.60
2023-03-31T18:46:45.700Z,21.60
2023-03-31T18:49:12.923Z,21.60
2023-03-31T18:51:39.658Z,21.60
2023-03-31T18:54:06.829Z,21.60
2023-03-31T18:56:33.689Z,21.60
2023-03-31T18:59:03.000Z,21.60
2023-03-31T19:01:29.831Z,21.60
2023-03-31T19:03:56.579Z,21.60
2023-03-31T19:06:23.486Z,21.60
2023-03-31T19:08:50.623Z,21.60
2023-03-31T19:11:17.666Z,21.60
2023-03-31T19:13:44.548Z,21.60
2023-03-31T19:16:12.392Z,21.60
2023-03-31T19:18:39.862Z,21.60
2023-03-31T19:21:07.172Z,21.60
2023-03-31T19:23:34.374Z,21.60
2023-03-31T19:26:02.582Z,21.60
2023-03-31T19:28:30.549Z,21.60
2023-03-31T19:30:57.909Z,21.60
2023-03-31T19:33:26.030Z,21.60
2023-03-31T19:35:53.175Z,21.60
2023-03-31T19:38:21.821Z,21.60
2023-03-31T19:40:49.070Z,21.60
2023-03-31T19:43:20.833Z,21.70
2023-03-31T19:45:48.794Z,21.60
2023-03-31T19:48:16.684Z,21.70
2023-03-31T19:50:54.414Z,21.60
2023-03-31T19:53:21.767Z,21.70
2023-03-31T19:56:00.865Z,21.70
2023-03-31T19:58:29.232Z,21.70
2023-03-31T20:00:57.665Z,21.70
2023-03-31T20:03:26.124Z,21.70
2023-03-31T20:06:01.200Z,21.70
2023-03-31T20:08:28.020Z,21.70
2023-03-31T20:11:02.341Z,21.70
2023-03-31T20:13:29.890Z,21.70
2023-03-31T20:16:01.854Z,21.70
2023-03-31T20:18:29.185Z,21.70
2023-03-31T20:21:13.222Z,21.70
2023-03-31T20:23:41.720Z,21.70
2023-03-31T20:26:14.780Z,21.70
2023-03-31T20:28:42.299Z,21.80
2023-03-31T20:31:16.624Z,21.80
2023-03-31T20:33:43.674Z,21.80
2023-03-31T20:36:13.680Z,21.80
2023-03-31T20:38:42.896Z,21.80
2023-03-31T20:41:10.930Z,21.80
2023-03-31T20:43:38.212Z,21.80
2023-03-31T20:46:07.497Z,21.80
2023-03-31T20:48:39.910Z,21.80
2023-03-31T20:51:12.237Z,21.80
2023-03-31T20:53:42.299Z,21.80
2023-03-31T20:56:14.854Z,21.80
2023-03-31T20:58:44.103Z,21.80
2023-03-31T21:01:12.415Z,21.80
2023-03-31T21:03:39.700Z,21.90
2023-03-31T21:06:12.461Z,21.90
2023-03-31T21:08:40.797Z,21.80
2023-03-31T21:11:08.634Z,21.90
2023-03-31T21:13:35.467Z,21.90
2023-03-31T21:16:04.352Z,21.90
2023-03-31T21:18:33.149Z,21.90
2023-03-31T21:21:05.683Z,21.90
2023-03-31T21:23:33.138Z,21.90
2023-03-31T21:26:02.108Z,21.90
2023-03-31T21:28:31.508Z,21.90
2023-03-31T21:31:03.269Z,21.90
2023-03-31T21:33:30.857Z,21.90
2023-03-31T21:35:58.503Z,21.90
2023-03-31T21:38:26.366Z,21.90
2023-03-31T21:40:54.376Z,22.00
2023-03-31T21:43:22.127Z,22.00
2023-03-31T21:45:50.246Z,22.00
2023-03-31T21:48:17.036Z,22.00
2023-03-31T21:50:46.045Z,22.00
2023-03-31T21:53:13.109Z,22.00
2023-03-31T21:55:39.864Z,22.10
2023-03-31T21:58:06.677Z,22.10
2023-03-31T22:00:33.481Z,22.00
2023-03-31T22:05:32.941Z,22.00
2023-03-31T22:08:00.683Z,22.10
2023-03-31T22:10:27.525Z,22.00
2023-03-31T22:12:54.272Z,22.10
2023-03-31T22:15:21.130Z,22.00
2023-03-31T22:17:47.939Z,22.00
2023-03-31T22:20:15.177Z,22.00
2023-03-31T22:22:41.962Z,22.00
2023-03-31T22:25:08.981Z,22.10
2023-03-31T22:27:35.910Z,22.00
2023-03-31T22:30:03.698Z,22.10
2023-03-31T22:32:30.449Z,22.10
2023-03-31T22:34:57.203Z,22.00
2023-03-31T22:37:24.016Z,22.10
2023-03-31T22:39:50.783Z,22.00
2023-03-31T22:42:17.498Z,22.00
2023-03-31T22:44:44.291Z,22.00
2023-03-31T22:47:11.381Z,22.10
2023-03-31T22:49:38.086Z,22.00
2023-03-31T22:52:05.102Z,22.10
2023-03-31T22:54:32.193Z,22.00
2023-03-31T22:56:58.935Z,22.00
2023-03-31T22:59:26.134Z,22.00
2023-03-31T23:01:53.237Z,22.00
2023-03-31T23:04:23.285Z,22.00
2023-03-31T23:06:50.280Z,22.10
2023-03-31T23:09:17.126Z,22.10
2023-03-31T23:11:45.065Z,22.00
2023-03-31T23:14:12.964Z,22.10
2023-03-31T23:16:40.442Z,22.00
2023-03-31T23:19:07.554Z,22.10
2023-03-31T23:21:34.797Z,22.00
2023-03-31T23:24:03.683Z,22.10
2023-03-31T23:26:32.715Z,22.10
2023-03-31T23:28:59.825Z,22.00
2023-03-31T23:31:29.753Z,22.10
2023-03-31T23:33:58.656Z,22.10
2023-03-31T23:36:26.394Z,22.00
2023-03-31T23:38:55.167Z,22.10
2023-03-31T23:41:22.941Z,22.00
2023-03-31T23:43:51.333Z,22.10
2023-03-31T23:46:18.351Z,22.10
2023-03-31T23:48:45.482Z,22.10
2023-03-31T23:51:13.283Z,22.00
2023-03-31T23:53:40.462Z,22.00
2023-03-31T23:56:09.974Z,22.10
2023-03-31T23:58:37.347Z,22.10
